AAL1954 KMIA-KMCO
Flight info
| Callsign | AAL1954 |
|---|---|
| Flight time | 0h 53m |
| Altitude | 22000 |
| Route | FLMGO2 WAPOM MUNGI1 |
| Aircraft | B738/M-SDE2E3FGHIRWXY/LB1 |
Departure
| Time | 2026-04-24 02:41 |
|---|---|
| Airport | Miami International Airport (KMIA) |
Arrival
| Time | 2026-04-24 03:34 |
|---|---|
| Airport | Orlando International Airport (KMCO) |
| Time | Latitude | Longitude | Altitude | Speed | Heading |
|---|---|---|---|---|---|
| 2026-04-24 02:10 | 25.79912 | -80.27318 | 14 ft | 0 kts | 169° |
| 2026-04-24 02:27 | 25.79914 | -80.27318 | 14 ft | 2 kts | 169° |
| 2026-04-24 02:27 | 25.79932 | -80.27322 | 16 ft | 3 kts | 172° |
| 2026-04-24 02:27 | 25.79951 | -80.27324 | 16 ft | 3 kts | 177° |
| 2026-04-24 02:27 | 25.79972 | -80.27324 | 16 ft | 3 kts | 191° |
| 2026-04-24 02:28 | 25.79989 | -80.27318 | 17 ft | 3 kts | 227° |
| 2026-04-24 02:28 | 25.79995 | -80.27308 | 15 ft | 1 kts | 267° |
| 2026-04-24 02:28 | 25.79995 | -80.27307 | 15 ft | 0 kts | 267° |
| 2026-04-24 02:33 | 25.79995 | -80.27309 | 15 ft | 1 kts | 268° |
| 2026-04-24 02:33 | 25.79994 | -80.27332 | 17 ft | 9 kts | 268° |
| 2026-04-24 02:33 | 25.79990 | -80.27441 | 14 ft | 16 kts | 272° |
| 2026-04-24 02:34 | 25.80051 | -80.27509 | 14 ft | 11 kts | 327° |
| 2026-04-24 02:34 | 25.80066 | -80.27628 | 14 ft | 21 kts | 266° |
| 2026-04-24 02:34 | 25.80056 | -80.27828 | 14 ft | 31 kts | 268° |
| 2026-04-24 02:34 | 25.80044 | -80.28098 | 13 ft | 39 kts | 268° |
| 2026-04-24 02:35 | 25.80033 | -80.28377 | 14 ft | 32 kts | 265° |
| 2026-04-24 02:35 | 25.80024 | -80.28594 | 15 ft | 23 kts | 267° |
| 2026-04-24 02:35 | 25.80016 | -80.28769 | 16 ft | 22 kts | 268° |
| 2026-04-24 02:35 | 25.80015 | -80.28825 | 16 ft | 0 kts | 269° |
| 2026-04-24 02:36 | 25.80012 | -80.28913 | 15 ft | 26 kts | 267° |
| 2026-04-24 02:36 | 25.80004 | -80.29140 | 15 ft | 31 kts | 268° |
| 2026-04-24 02:36 | 25.79991 | -80.29389 | 14 ft | 33 kts | 268° |
| 2026-04-24 02:37 | 25.79981 | -80.29643 | 13 ft | 32 kts | 268° |
| 2026-04-24 02:37 | 25.79970 | -80.29863 | 13 ft | 19 kts | 266° |
| 2026-04-24 02:37 | 25.79974 | -80.29953 | 12 ft | 0 kts | 284° |
| 2026-04-24 02:38 | 25.79975 | -80.29958 | 12 ft | 1 kts | 284° |
| 2026-04-24 02:38 | 25.79979 | -80.29974 | 13 ft | 3 kts | 284° |
| 2026-04-24 02:38 | 25.79987 | -80.30008 | 12 ft | 10 kts | 285° |
| 2026-04-24 02:39 | 25.80006 | -80.30086 | 13 ft | 7 kts | 288° |
| 2026-04-24 02:39 | 25.80033 | -80.30124 | 13 ft | 5 kts | 330° |
| 2026-04-24 02:39 | 25.80037 | -80.30126 | 13 ft | 0 kts | 335° |
| 2026-04-24 02:39 | 25.80039 | -80.30127 | 13 ft | 0 kts | 337° |
| 2026-04-24 02:40 | 25.80064 | -80.30122 | 13 ft | 6 kts | 38° |
| 2026-04-24 02:40 | 25.80074 | -80.30072 | 13 ft | 8 kts | 87° |
| 2026-04-24 02:40 | 25.80079 | -80.29941 | 12 ft | 53 kts | 88° |
| 2026-04-24 02:40 | 25.80115 | -80.29078 | 16 ft | 165 kts | 87° |
| 2026-04-24 02:41 | 25.80177 | -80.27550 | 406 ft | 222 kts | 88° |
| 2026-04-24 02:41 | 25.80280 | -80.25680 | 1263 ft | 245 kts | 86° |
| 2026-04-24 02:41 | 25.80380 | -80.23859 | 3061 ft | 228 kts | 87° |
| 2026-04-24 02:41 | 25.80451 | -80.22127 | 4148 ft | 231 kts | 87° |
| 2026-04-24 02:42 | 25.80515 | -80.20303 | 4636 ft | 238 kts | 88° |
| 2026-04-24 02:42 | 25.80648 | -80.18479 | 4759 ft | 239 kts | 76° |
| 2026-04-24 02:42 | 25.81485 | -80.16934 | 4792 ft | 237 kts | 43° |
| 2026-04-24 02:42 | 25.82875 | -80.15888 | 4809 ft | 243 kts | 28° |
| 2026-04-24 02:43 | 25.83819 | -80.15478 | 4803 ft | 244 kts | 17° |
| 2026-04-24 02:44 | 25.84808 | -80.15286 | 4808 ft | 245 kts | 5° |
| 2026-04-24 02:44 | 25.86507 | -80.15457 | 4806 ft | 246 kts | 346° |
| 2026-04-24 02:44 | 25.87753 | -80.16017 | 4799 ft | 247 kts | 331° |
| 2026-04-24 02:46 | 25.88980 | -80.17079 | 4811 ft | 250 kts | 314° |
| 2026-04-24 02:46 | 25.89218 | -80.17377 | 4812 ft | 250 kts | 310° |
| 2026-04-24 02:47 | 25.90036 | -80.18870 | 4810 ft | 256 kts | 293° |
| 2026-04-24 02:47 | 25.90457 | -80.20810 | 4990 ft | 261 kts | 273° |
| 2026-04-24 02:47 | 25.90256 | -80.22787 | 6065 ft | 254 kts | 254° |
| 2026-04-24 02:47 | 25.90229 | -80.22892 | 6137 ft | 254 kts | 253° |
| 2026-04-24 02:48 | 25.90067 | -80.23415 | 6453 ft | 256 kts | 250° |
| 2026-04-24 02:48 | 25.89695 | -80.24298 | 6841 ft | 265 kts | 241° |
| 2026-04-24 02:49 | 25.88806 | -80.25637 | 7503 ft | 276 kts | 227° |
| 2026-04-24 02:49 | 25.87303 | -80.26949 | 8642 ft | 280 kts | 211° |
| 2026-04-24 02:50 | 25.85485 | -80.27760 | 9854 ft | 284 kts | 195° |
| 2026-04-24 02:50 | 25.83468 | -80.28011 | 10707 ft | 301 kts | 180° |
| 2026-04-24 02:50 | 25.81265 | -80.27714 | 11014 ft | 334 kts | 172° |
| 2026-04-24 02:50 | 25.79849 | -80.27532 | 11366 ft | 343 kts | 182° |
| 2026-04-24 02:52 | 25.78076 | -80.27926 | 12019 ft | 344 kts | 205° |
| 2026-04-24 02:52 | 25.76174 | -80.29488 | 13048 ft | 342 kts | 232° |
| 2026-04-24 02:52 | 25.75734 | -80.30174 | 13382 ft | 343 kts | 240° |
| 2026-04-24 02:54 | 25.75161 | -80.31470 | 13582 ft | 344 kts | 251° |
| 2026-04-24 02:54 | 25.74909 | -80.34079 | 13676 ft | 342 kts | 278° |
| 2026-04-24 02:54 | 25.75760 | -80.36540 | 13830 ft | 345 kts | 301° |
| 2026-04-24 02:54 | 25.77181 | -80.38724 | 13956 ft | 348 kts | 309° |
| 2026-04-24 02:55 | 25.77620 | -80.39282 | 13976 ft | 350 kts | 311° |
| 2026-04-24 02:55 | 25.79109 | -80.40889 | 14412 ft | 358 kts | 320° |
| 2026-04-24 02:57 | 25.79714 | -80.41382 | 14658 ft | 360 kts | 324° |
| 2026-04-24 02:57 | 25.81487 | -80.42567 | 15467 ft | 362 kts | 332° |
| 2026-04-24 02:58 | 25.83149 | -80.43282 | 16108 ft | 366 kts | 341° |
| 2026-04-24 02:58 | 25.83889 | -80.43521 | 16375 ft | 368 kts | 343° |
| 2026-04-24 02:59 | 25.85927 | -80.44112 | 17045 ft | 373 kts | 343° |
| 2026-04-24 02:59 | 25.88486 | -80.44814 | 17828 ft | 381 kts | 345° |
| 2026-04-24 02:59 | 25.91102 | -80.45432 | 18578 ft | 388 kts | 347° |
| 2026-04-24 03:00 | 25.93776 | -80.45984 | 19312 ft | 392 kts | 347° |
| 2026-04-24 03:00 | 25.96377 | -80.46512 | 20136 ft | 392 kts | 347° |
| 2026-04-24 03:01 | 25.98204 | -80.46896 | 20686 ft | 394 kts | 347° |
| 2026-04-24 03:02 | 25.98750 | -80.47013 | 20835 ft | 395 kts | 347° |
| 2026-04-24 03:02 | 26.00860 | -80.47482 | 21367 ft | 399 kts | 346° |
| 2026-04-24 03:02 | 26.03604 | -80.48120 | 21954 ft | 405 kts | 345° |
| 2026-04-24 03:02 | 26.06362 | -80.48783 | 22058 ft | 405 kts | 345° |
| 2026-04-24 03:03 | 26.09123 | -80.49462 | 22073 ft | 406 kts | 345° |
| 2026-04-24 03:03 | 26.11882 | -80.50148 | 22074 ft | 406 kts | 345° |
| 2026-04-24 03:03 | 26.14640 | -80.50838 | 22071 ft | 406 kts | 345° |
| 2026-04-24 03:03 | 26.17371 | -80.51521 | 22072 ft | 406 kts | 345° |
| 2026-04-24 03:04 | 26.20133 | -80.52213 | 22072 ft | 406 kts | 345° |
| 2026-04-24 03:04 | 26.22905 | -80.52906 | 22064 ft | 406 kts | 345° |
| 2026-04-24 03:04 | 26.25660 | -80.53595 | 22080 ft | 406 kts | 345° |
| 2026-04-24 03:04 | 26.28401 | -80.54280 | 22062 ft | 406 kts | 345° |
| 2026-04-24 03:05 | 26.31152 | -80.54968 | 22064 ft | 405 kts | 345° |
| 2026-04-24 03:05 | 26.33913 | -80.55659 | 22072 ft | 405 kts | 345° |
| 2026-04-24 03:05 | 26.36643 | -80.56342 | 22069 ft | 405 kts | 345° |
| 2026-04-24 03:05 | 26.39408 | -80.57034 | 22073 ft | 405 kts | 345° |
| 2026-04-24 03:06 | 26.42134 | -80.57717 | 22075 ft | 405 kts | 345° |
| 2026-04-24 03:06 | 26.44893 | -80.58406 | 22063 ft | 405 kts | 345° |
| 2026-04-24 03:06 | 26.47665 | -80.59096 | 22082 ft | 411 kts | 345° |
| 2026-04-24 03:06 | 26.50497 | -80.59810 | 22087 ft | 430 kts | 345° |
| 2026-04-24 03:07 | 26.53408 | -80.60544 | 22061 ft | 418 kts | 345° |
| 2026-04-24 03:07 | 26.55537 | -80.61078 | 22054 ft | 417 kts | 345° |
| 2026-04-24 03:07 | 26.55606 | -80.61095 | 22051 ft | 417 kts | 345° |
| 2026-04-24 03:07 | 26.58483 | -80.61821 | 22088 ft | 436 kts | 345° |
| 2026-04-24 03:08 | 26.61523 | -80.62589 | 22085 ft | 452 kts | 345° |
| 2026-04-24 03:08 | 26.67757 | -80.64158 | 22079 ft | 458 kts | 345° |
| 2026-04-24 03:08 | 26.70829 | -80.64928 | 22066 ft | 455 kts | 345° |
| 2026-04-24 03:09 | 26.73926 | -80.65706 | 22065 ft | 453 kts | 345° |
| 2026-04-24 03:09 | 26.77013 | -80.66483 | 22069 ft | 452 kts | 345° |
| 2026-04-24 03:09 | 26.80050 | -80.67249 | 22074 ft | 452 kts | 345° |
| 2026-04-24 03:09 | 26.83139 | -80.68030 | 22078 ft | 453 kts | 345° |
| 2026-04-24 03:10 | 26.86198 | -80.68802 | 22073 ft | 454 kts | 345° |
| 2026-04-24 03:10 | 26.89282 | -80.69578 | 22066 ft | 450 kts | 345° |
| 2026-04-24 03:10 | 26.92324 | -80.70335 | 21953 ft | 446 kts | 344° |
| 2026-04-24 03:10 | 26.95310 | -80.71204 | 22026 ft | 450 kts | 341° |
| 2026-04-24 03:11 | 26.98325 | -80.72250 | 22071 ft | 452 kts | 339° |
| 2026-04-24 03:11 | 27.01296 | -80.73419 | 22069 ft | 450 kts | 337° |
| 2026-04-24 03:11 | 27.04192 | -80.74671 | 22081 ft | 449 kts | 336° |
| 2026-04-24 03:11 | 27.07126 | -80.75944 | 22085 ft | 450 kts | 336° |
| 2026-04-24 03:12 | 27.10067 | -80.77165 | 22083 ft | 450 kts | 338° |
| 2026-04-24 03:12 | 27.13001 | -80.78327 | 22084 ft | 450 kts | 338° |
| 2026-04-24 03:12 | 27.15980 | -80.79467 | 22086 ft | 450 kts | 339° |
| 2026-04-24 03:12 | 27.18961 | -80.80589 | 22106 ft | 450 kts | 339° |
| 2026-04-24 03:13 | 27.21897 | -80.81692 | 22102 ft | 448 kts | 339° |
| 2026-04-24 03:13 | 27.24877 | -80.82816 | 22095 ft | 447 kts | 339° |
| 2026-04-24 03:13 | 27.27799 | -80.83924 | 22090 ft | 445 kts | 339° |
| 2026-04-24 03:13 | 27.30750 | -80.85046 | 22090 ft | 445 kts | 338° |
| 2026-04-24 03:14 | 27.33656 | -80.86129 | 22093 ft | 445 kts | 339° |
| 2026-04-24 03:14 | 27.36621 | -80.87162 | 22092 ft | 445 kts | 341° |
| 2026-04-24 03:14 | 27.39624 | -80.88111 | 22091 ft | 446 kts | 342° |
| 2026-04-24 03:14 | 27.42610 | -80.88957 | 22078 ft | 447 kts | 344° |
| 2026-04-24 03:15 | 27.45657 | -80.89767 | 22075 ft | 448 kts | 344° |
| 2026-04-24 03:15 | 27.48677 | -80.90577 | 22080 ft | 448 kts | 343° |
| 2026-04-24 03:15 | 27.51715 | -80.91425 | 22084 ft | 448 kts | 343° |
| 2026-04-24 03:15 | 27.54701 | -80.92292 | 22084 ft | 448 kts | 342° |
| 2026-04-24 03:16 | 27.57718 | -80.93186 | 22074 ft | 442 kts | 342° |
| 2026-04-24 03:16 | 27.60606 | -80.94045 | 22063 ft | 417 kts | 342° |
| 2026-04-24 03:16 | 27.63364 | -80.94867 | 22063 ft | 401 kts | 342° |
| 2026-04-24 03:16 | 27.66014 | -80.95661 | 21910 ft | 395 kts | 342° |
| 2026-04-24 03:17 | 27.68678 | -80.96459 | 21361 ft | 391 kts | 342° |
| 2026-04-24 03:17 | 27.70421 | -80.96980 | 20985 ft | 388 kts | 342° |
| 2026-04-24 03:17 | 27.73870 | -80.98010 | 20250 ft | 382 kts | 342° |
| 2026-04-24 03:17 | 27.75572 | -80.98519 | 19886 ft | 380 kts | 343° |
| 2026-04-24 03:18 | 27.78122 | -80.99293 | 19347 ft | 377 kts | 342° |
| 2026-04-24 03:18 | 27.80653 | -81.00053 | 18782 ft | 375 kts | 343° |
| 2026-04-24 03:18 | 27.83181 | -81.00805 | 18105 ft | 375 kts | 343° |
| 2026-04-24 03:18 | 27.85697 | -81.01557 | 17495 ft | 372 kts | 343° |
| 2026-04-24 03:19 | 27.88167 | -81.02297 | 16937 ft | 368 kts | 343° |
| 2026-04-24 03:19 | 27.90638 | -81.03039 | 16390 ft | 364 kts | 343° |
| 2026-04-24 03:19 | 27.93083 | -81.03774 | 15862 ft | 360 kts | 343° |
| 2026-04-24 03:19 | 27.95476 | -81.04580 | 15313 ft | 356 kts | 340° |
| 2026-04-24 03:20 | 27.97774 | -81.05500 | 14815 ft | 352 kts | 338° |
| 2026-04-24 03:20 | 28.00040 | -81.06527 | 14304 ft | 348 kts | 336° |
| 2026-04-24 03:20 | 28.02281 | -81.07567 | 13791 ft | 345 kts | 336° |
| 2026-04-24 03:20 | 28.04490 | -81.08548 | 13226 ft | 343 kts | 338° |
| 2026-04-24 03:21 | 28.06723 | -81.09506 | 12688 ft | 339 kts | 338° |
| 2026-04-24 03:21 | 28.08904 | -81.10433 | 12188 ft | 336 kts | 338° |
| 2026-04-24 03:21 | 28.11082 | -81.11381 | 11695 ft | 332 kts | 338° |
| 2026-04-24 03:21 | 28.13226 | -81.12327 | 11205 ft | 329 kts | 338° |
| 2026-04-24 03:22 | 28.15333 | -81.13260 | 10722 ft | 327 kts | 338° |
| 2026-04-24 03:22 | 28.17432 | -81.14188 | 10496 ft | 316 kts | 338° |
| 2026-04-24 03:22 | 28.19440 | -81.15075 | 10351 ft | 304 kts | 338° |
| 2026-04-24 03:22 | 28.21381 | -81.15931 | 10206 ft | 293 kts | 338° |
| 2026-04-24 03:23 | 28.23251 | -81.16757 | 10079 ft | 282 kts | 338° |
| 2026-04-24 03:23 | 28.25060 | -81.17554 | 9907 ft | 275 kts | 338° |
| 2026-04-24 03:23 | 28.26823 | -81.18326 | 9552 ft | 274 kts | 340° |
| 2026-04-24 03:23 | 28.28683 | -81.18754 | 9239 ft | 273 kts | 358° |
| 2026-04-24 03:24 | 28.30574 | -81.18684 | 8974 ft | 270 kts | 2° |
| 2026-04-24 03:24 | 28.32424 | -81.18598 | 8644 ft | 269 kts | 359° |
| 2026-04-24 03:24 | 28.34297 | -81.18622 | 8375 ft | 266 kts | 358° |
| 2026-04-24 03:24 | 28.36119 | -81.18671 | 8280 ft | 256 kts | 358° |
| 2026-04-24 03:25 | 28.37853 | -81.18713 | 8156 ft | 249 kts | 358° |
| 2026-04-24 03:25 | 28.39566 | -81.18749 | 7983 ft | 243 kts | 358° |
| 2026-04-24 03:25 | 28.41265 | -81.18769 | 7731 ft | 243 kts | 358° |
| 2026-04-24 03:25 | 28.42939 | -81.18783 | 7482 ft | 242 kts | 359° |
| 2026-04-24 03:26 | 28.44619 | -81.18796 | 7231 ft | 241 kts | 359° |
| 2026-04-24 03:26 | 28.46301 | -81.18809 | 6977 ft | 240 kts | 359° |
| 2026-04-24 03:26 | 28.47951 | -81.18822 | 6723 ft | 240 kts | 359° |
| 2026-04-24 03:26 | 28.49620 | -81.18836 | 6454 ft | 239 kts | 359° |
| 2026-04-24 03:27 | 28.51289 | -81.18850 | 6182 ft | 235 kts | 359° |
| 2026-04-24 03:27 | 28.52842 | -81.18863 | 6096 ft | 217 kts | 359° |
| 2026-04-24 03:27 | 28.54309 | -81.18879 | 5896 ft | 205 kts | 356° |
| 2026-04-24 03:27 | 28.55616 | -81.19415 | 5586 ft | 200 kts | 318° |
| 2026-04-24 03:28 | 28.56400 | -81.20673 | 5335 ft | 193 kts | 292° |
| 2026-04-24 03:28 | 28.56837 | -81.22101 | 5056 ft | 189 kts | 287° |
| 2026-04-24 03:28 | 28.57219 | -81.23510 | 4751 ft | 187 kts | 286° |
| 2026-04-24 03:28 | 28.57605 | -81.24921 | 4441 ft | 186 kts | 286° |
| 2026-04-24 03:29 | 28.57993 | -81.26326 | 4142 ft | 184 kts | 286° |
| 2026-04-24 03:29 | 28.58378 | -81.27710 | 3852 ft | 182 kts | 286° |
| 2026-04-24 03:29 | 28.58761 | -81.29078 | 3577 ft | 180 kts | 285° |
| 2026-04-24 03:29 | 28.59137 | -81.30439 | 3297 ft | 179 kts | 282° |
| 2026-04-24 03:30 | 28.59185 | -81.31796 | 3008 ft | 170 kts | 245° |
| 2026-04-24 03:30 | 28.58404 | -81.32651 | 2737 ft | 151 kts | 187° |
| 2026-04-24 03:30 | 28.57371 | -81.32727 | 2589 ft | 152 kts | 181° |
| 2026-04-24 03:30 | 28.56322 | -81.32801 | 2367 ft | 145 kts | 178° |
| 2026-04-24 03:31 | 28.55334 | -81.32810 | 2196 ft | 140 kts | 176° |
| 2026-04-24 03:31 | 28.54354 | -81.32800 | 1989 ft | 142 kts | 175° |
| 2026-04-24 03:31 | 28.53359 | -81.32789 | 1793 ft | 143 kts | 175° |
| 2026-04-24 03:31 | 28.52355 | -81.32777 | 1616 ft | 146 kts | 175° |
| 2026-04-24 03:32 | 28.51347 | -81.32766 | 1431 ft | 144 kts | 175° |
| 2026-04-24 03:32 | 28.50335 | -81.32754 | 1210 ft | 147 kts | 175° |
| 2026-04-24 03:32 | 28.49271 | -81.32758 | 1004 ft | 147 kts | 178° |
| 2026-04-24 03:32 | 28.48257 | -81.32761 | 857 ft | 147 kts | 176° |
| 2026-04-24 03:33 | 28.47199 | -81.32732 | 662 ft | 149 kts | 177° |
| 2026-04-24 03:33 | 28.46170 | -81.32723 | 469 ft | 147 kts | 182° |
| 2026-04-24 03:33 | 28.45190 | -81.32708 | 234 ft | 137 kts | 182° |
| 2026-04-24 03:33 | 28.44290 | -81.32694 | 105 ft | 119 kts | 183° |
| 2026-04-24 03:34 | 28.43644 | -81.32690 | 104 ft | 64 kts | 179° |
| 2026-04-24 03:34 | 28.43248 | -81.32675 | 108 ft | 33 kts | 172° |
| 2026-04-24 03:34 | 28.43104 | -81.32630 | 105 ft | 19 kts | 140° |
| 2026-04-24 03:34 | 28.43058 | -81.32535 | 105 ft | 9 kts | 97° |
| 2026-04-24 03:35 | 28.43058 | -81.32460 | 104 ft | 10 kts | 89° |
| 2026-04-24 03:35 | 28.43059 | -81.32379 | 104 ft | 11 kts | 91° |
| 2026-04-24 03:35 | 28.43059 | -81.32278 | 101 ft | 15 kts | 90° |
| 2026-04-24 03:35 | 28.43061 | -81.32137 | 99 ft | 14 kts | 88° |
| 2026-04-24 03:36 | 28.43102 | -81.32039 | 99 ft | 14 kts | 48° |
| 2026-04-24 03:36 | 28.43189 | -81.31996 | 100 ft | 16 kts | 359° |
| 2026-04-24 03:36 | 28.43327 | -81.31998 | 100 ft | 23 kts | 358° |
| 2026-04-24 03:36 | 28.43510 | -81.31999 | 103 ft | 29 kts | 359° |
| 2026-04-24 03:37 | 28.43729 | -81.32002 | 107 ft | 34 kts | 0° |
| 2026-04-24 03:37 | 28.43915 | -81.32004 | 109 ft | 8 kts | 359° |
| 2026-04-24 03:37 | 28.43959 | -81.31947 | 110 ft | 14 kts | 89° |
| 2026-04-24 03:37 | 28.43923 | -81.31823 | 107 ft | 21 kts | 94° |
| 2026-04-24 03:38 | 28.43924 | -81.31635 | 102 ft | 27 kts | 90° |
| 2026-04-24 03:38 | 28.43929 | -81.31382 | 100 ft | 33 kts | 87° |
| 2026-04-24 03:38 | 28.43941 | -81.31133 | 115 ft | 30 kts | 87° |
| 2026-04-24 03:38 | 28.44320 | -81.32694 | 104 ft | 0 kts | 183° |